createdAt,value
2018-04-18T00:00:55.526Z,93.59
2018-04-18T00:01:55.508Z,92.83
2018-04-18T00:02:55.498Z,93.21
2018-04-18T00:03:55.481Z,93.26
2018-04-18T00:04:55.473Z,93.07
2018-04-18T00:05:55.454Z,93.30
2018-04-18T00:06:55.443Z,93.50
2018-04-18T00:07:55.423Z,93.02
2018-04-18T00:08:55.423Z,93.16
2018-04-18T00:09:55.398Z,92.97
2018-04-18T00:10:55.385Z,92.97
2018-04-18T00:11:55.376Z,92.97
2018-04-18T00:12:55.353Z,92.97
2018-04-18T00:13:55.340Z,92.78
2018-04-18T00:14:55.334Z,92.87
2018-04-18T00:15:55.315Z,92.21
2018-04-18T00:16:55.303Z,92.21
2018-04-18T00:17:55.289Z,92.30
2018-04-18T00:18:55.274Z,92.58
2018-04-18T00:19:55.256Z,92.40
2018-04-18T00:20:55.252Z,92.58
2018-04-18T00:21:55.231Z,92.11
2018-04-18T00:22:55.222Z,92.68
2018-04-18T00:23:55.202Z,92.30
2018-04-18T00:24:55.198Z,92.44
2018-04-18T00:25:55.183Z,92.25
2018-04-18T00:26:55.198Z,92.58
2018-04-18T00:27:55.152Z,92.97
2018-04-18T00:28:55.131Z,92.97
2018-04-18T00:29:55.122Z,93.40
2018-04-18T00:30:55.110Z,93.12
2018-04-18T00:31:55.107Z,93.12
2018-04-18T00:32:55.080Z,93.21
2018-04-18T00:33:55.070Z,93.69
2018-04-18T00:34:55.053Z,94.07
2018-04-18T00:35:55.090Z,93.55
2018-04-18T00:36:55.027Z,93.88
2018-04-18T00:37:55.110Z,93.64
2018-04-18T00:38:55.002Z,93.93
2018-04-18T00:39:54.984Z,94.02
2018-04-18T00:40:54.975Z,94.17
2018-04-18T00:41:55.027Z,94.17
2018-04-18T00:42:54.944Z,94.17
2018-04-18T00:43:55.082Z,94.17
2018-04-18T00:44:54.914Z,94.17
2018-04-18T00:45:55.004Z,93.59
2018-04-18T00:46:54.884Z,93.59
2018-04-18T00:47:54.943Z,93.59
2018-04-18T00:48:54.858Z,93.98
2018-04-18T00:49:54.864Z,93.59
2018-04-18T00:50:54.833Z,93.84
2018-04-18T00:51:54.871Z,94.07
2018-04-18T00:52:54.803Z,93.93
2018-04-18T00:53:54.788Z,94.12
2018-04-18T00:54:54.774Z,94.21
2018-04-18T00:55:54.807Z,94.70
2018-04-18T00:56:54.744Z,94.50
2018-04-18T00:57:54.729Z,94.21
2018-04-18T00:58:54.719Z,94.98
2018-04-18T00:59:54.706Z,94.98
2018-04-18T01:00:54.694Z,94.60
2018-04-18T01:01:54.674Z,94.98
2018-04-18T01:02:54.663Z,94.70
2018-04-18T01:03:54.652Z,94.79
2018-04-18T01:04:54.634Z,94.89
2018-04-18T01:05:54.623Z,94.31
2018-04-18T01:06:54.607Z,94.89
2018-04-18T01:07:54.595Z,94.79
2018-04-18T01:08:54.574Z,95.17
2018-04-18T01:09:54.563Z,95.17
2018-04-18T01:10:54.550Z,94.70
2018-04-18T01:11:54.535Z,94.89
2018-04-18T01:12:54.524Z,94.79
2018-04-18T01:13:54.514Z,95.17
2018-04-18T01:14:54.494Z,95.17
2018-04-18T01:15:54.476Z,95.07
2018-04-18T01:16:54.462Z,94.89
2018-04-18T01:17:54.454Z,95.32
2018-04-18T01:18:54.437Z,95.89
2018-04-18T01:19:54.428Z,96.08
2018-04-18T01:20:54.409Z,95.98
2018-04-18T01:21:54.391Z,96.18
2018-04-18T01:22:54.380Z,96.27
2018-04-18T01:23:54.363Z,96.94
2018-04-18T01:24:54.347Z,96.75
2018-04-18T01:25:54.331Z,96.94
2018-04-18T01:26:54.321Z,97.13
2018-04-18T01:27:54.305Z,96.84
2018-04-18T01:28:54.292Z,96.75
2018-04-18T01:29:54.276Z,96.18
2018-04-18T01:30:54.264Z,96.18
2018-04-18T01:31:54.253Z,96.18
2018-04-18T01:32:54.235Z,95.98
2018-04-18T01:33:54.220Z,95.79
2018-04-18T01:34:54.203Z,95.75
2018-04-18T01:35:54.189Z,95.84
2018-04-18T01:36:54.182Z,96.03
2018-04-18T01:37:54.161Z,95.94
2018-04-18T01:38:54.150Z,96.22
2018-04-18T01:39:54.135Z,95.75
2018-04-18T01:40:54.119Z,95.75
2018-04-18T01:41:54.105Z,95.56
2018-04-18T01:42:54.090Z,95.32
2018-04-18T01:43:54.075Z,95.79
2018-04-18T01:44:54.064Z,95.98
2018-04-18T01:45:54.047Z,96.03
2018-04-18T01:46:54.036Z,95.98
2018-04-18T01:47:54.023Z,95.79
2018-04-18T01:48:54.003Z,95.98
2018-04-18T01:49:53.993Z,96.27
2018-04-18T01:50:53.973Z,95.89
2018-04-18T01:51:53.962Z,95.89
2018-04-18T01:52:53.947Z,95.79
2018-04-18T01:53:53.934Z,96.56
2018-04-18T01:54:53.918Z,96.66
2018-04-18T01:55:53.903Z,96.75
2018-04-18T01:56:53.894Z,96.56
2018-04-18T01:57:53.874Z,96.18
2018-04-18T01:58:53.864Z,96.08
2018-04-18T01:59:53.846Z,95.98
2018-04-18T02:00:53.834Z,95.98
2018-04-18T02:01:53.814Z,96.18
2018-04-18T02:02:53.801Z,96.18
2018-04-18T02:03:53.787Z,95.89
2018-04-18T02:04:53.771Z,95.98
2018-04-18T02:05:53.756Z,95.98
2018-04-18T02:06:53.742Z,96.37
2018-04-18T02:07:53.728Z,95.70
2018-04-18T02:08:53.713Z,95.98
2018-04-18T02:09:53.703Z,95.89
2018-04-18T02:10:53.683Z,95.98
2018-04-18T02:11:53.669Z,95.89
2018-04-18T02:12:53.658Z,96.08
2018-04-18T02:13:53.644Z,96.18
2018-04-18T02:14:53.623Z,95.61
2018-04-18T02:15:53.612Z,96.08
2018-04-18T02:16:53.599Z,96.37
2018-04-18T02:17:53.583Z,95.98
2018-04-18T02:18:53.566Z,96.18
2018-04-18T02:19:53.550Z,96.18
2018-04-18T02:20:53.535Z,96.18
2018-04-18T02:21:53.520Z,95.98
2018-04-18T02:22:53.514Z,95.98
2018-04-18T02:23:53.491Z,96.70
2018-04-18T02:24:53.584Z,96.99
2018-04-18T02:25:53.462Z,96.70
2018-04-18T02:26:53.553Z,97.18
2018-04-18T02:27:53.437Z,96.99
2018-04-18T02:28:53.454Z,97.28
2018-04-18T02:29:53.406Z,96.80
2018-04-18T02:30:53.395Z,97.18
2018-04-18T02:31:53.380Z,96.89
2018-04-18T02:32:53.414Z,96.61
2018-04-18T02:33:53.346Z,96.89
2018-04-18T02:34:53.333Z,97.28
2018-04-18T02:35:53.317Z,97.18
2018-04-18T02:36:53.302Z,96.80
2018-04-18T02:37:53.293Z,96.75
2018-04-18T02:38:53.320Z,96.32
2018-04-18T02:39:53.257Z,96.70
2018-04-18T02:40:53.293Z,96.80
2018-04-18T02:41:53.234Z,96.80
2018-04-18T02:42:53.319Z,96.89
2018-04-18T02:43:53.215Z,97.71
2018-04-18T02:44:53.487Z,98.61
2018-04-18T02:45:53.167Z,99.23
2018-04-18T02:46:53.155Z,99.95
2018-04-18T02:47:53.146Z,99.90
2018-04-18T02:48:53.175Z,99.62
2018-04-18T02:49:53.112Z,99.71
2018-04-18T02:50:53.099Z,98.75
2018-04-18T02:51:53.091Z,99.14
2018-04-18T02:52:53.061Z,98.75
2018-04-18T02:53:53.048Z,98.47
2018-04-18T02:54:53.033Z,98.75
2018-04-18T02:55:53.016Z,98.18
2018-04-18T02:56:53.003Z,98.23
2018-04-18T02:57:52.995Z,97.75
2018-04-18T02:58:52.973Z,97.85
2018-04-18T02:59:52.960Z,97.75
2018-04-18T03:00:52.942Z,97.28
2018-04-18T03:01:52.931Z,97.37
2018-04-18T03:02:52.916Z,97.47
2018-04-18T03:03:53.154Z,97.56
2018-04-18T03:04:52.879Z,97.37
2018-04-18T03:05:52.868Z,97.56
2018-04-18T03:06:52.855Z,97.56
2018-04-18T03:07:52.842Z,97.56
2018-04-18T03:08:52.823Z,97.28
2018-04-18T03:09:52.809Z,97.18
2018-04-18T03:10:52.810Z,97.47
2018-04-18T03:11:52.774Z,97.47
2018-04-18T03:12:52.763Z,97.47
2018-04-18T03:13:52.746Z,97.47
2018-04-18T03:14:52.732Z,97.56
2018-04-18T03:15:52.716Z,97.37
2018-04-18T03:16:52.698Z,96.99
2018-04-18T03:17:52.690Z,96.89
2018-04-18T03:18:52.679Z,97.18
2018-04-18T03:19:52.651Z,96.99
2018-04-18T03:20:52.643Z,96.80
2018-04-18T03:21:52.623Z,96.89
2018-04-18T03:22:52.616Z,97.56
2018-04-18T03:23:52.593Z,97.32
2018-04-18T03:24:52.583Z,97.52
2018-04-18T03:25:52.562Z,97.32
2018-04-18T03:26:52.547Z,97.23
2018-04-18T03:27:52.532Z,97.42
2018-04-18T03:28:52.518Z,97.32
2018-04-18T03:29:52.507Z,97.23
2018-04-18T03:30:52.494Z,97.71
2018-04-18T03:31:52.475Z,97.66
2018-04-18T03:32:52.464Z,97.47
2018-04-18T03:33:52.445Z,97.47
2018-04-18T03:34:52.431Z,97.56
2018-04-18T03:35:52.452Z,97.52
2018-04-18T03:36:52.399Z,97.13
2018-04-18T03:37:52.382Z,97.52
2018-04-18T03:38:52.372Z,97.13
2018-04-18T03:39:52.354Z,98.37
2018-04-18T03:40:52.408Z,97.80
2018-04-18T03:41:52.319Z,98.37
2018-04-18T03:42:52.305Z,97.99
2018-04-18T03:43:52.293Z,97.99
2018-04-18T03:44:52.277Z,98.08
2018-04-18T03:45:52.260Z,97.99
2018-04-18T03:46:52.242Z,98.66
2018-04-18T03:47:52.233Z,98.37
2018-04-18T03:48:52.212Z,98.47
2018-04-18T03:49:52.202Z,98.37
2018-04-18T03:50:52.183Z,98.47
2018-04-18T03:51:52.172Z,98.52
2018-04-18T03:52:52.152Z,99.18
2018-04-18T03:53:52.137Z,98.99
2018-04-18T03:54:52.121Z,99.37
2018-04-18T03:55:52.107Z,99.85
2018-04-18T03:56:52.092Z,99.99
2018-04-18T03:57:52.077Z,99.66
2018-04-18T03:58:52.061Z,99.95
2018-04-18T03:59:52.043Z,99.08
2018-04-18T04:00:52.031Z,98.90
2018-04-18T04:01:52.025Z,99.04
2018-04-18T04:02:51.999Z,99.04
2018-04-18T04:03:51.984Z,99.04
2018-04-18T04:04:51.971Z,98.75
2018-04-18T04:05:51.952Z,98.99
2018-04-18T04:06:51.943Z,98.99
2018-04-18T04:07:51.922Z,98.90
2018-04-18T04:08:51.907Z,98.61
2018-04-18T04:09:51.905Z,98.75
2018-04-18T04:10:51.878Z,98.90
2018-04-18T04:11:51.863Z,98.85
2018-04-18T04:12:51.851Z,99.18
2018-04-18T04:13:51.834Z,99.08
2018-04-18T04:14:51.813Z,99.43
2018-04-18T04:15:51.803Z,98.32
2018-04-18T04:16:51.785Z,98.03
2018-04-18T04:17:51.772Z,98.28
2018-04-18T04:18:51.753Z,98.75
2018-04-18T04:19:51.740Z,98.23
2018-04-18T04:20:51.721Z,98.61
2018-04-18T04:21:51.710Z,98.61
2018-04-18T04:22:51.692Z,98.52
2018-04-18T04:23:51.676Z,98.61
2018-04-18T04:24:51.717Z,98.61
2018-04-18T04:25:51.644Z,98.66
2018-04-18T04:26:51.634Z,98.42
2018-04-18T04:27:51.713Z,99.33
2018-04-18T04:28:51.598Z,99.18
2018-04-18T04:29:51.664Z,98.61
2018-04-18T04:30:51.567Z,98.57
2018-04-18T04:31:51.550Z,99.28
2018-04-18T04:32:51.535Z,98.61
2018-04-18T04:33:51.623Z,99.28
2018-04-18T04:34:51.507Z,99.28
2018-04-18T04:35:51.591Z,99.28
2018-04-18T04:36:51.474Z,98.52
2018-04-18T04:37:51.558Z,98.42
2018-04-18T04:38:51.442Z,98.42
2018-04-18T04:39:51.481Z,98.52
2018-04-18T04:40:51.411Z,98.52
2018-04-18T04:41:51.407Z,98.23
2018-04-18T04:42:51.388Z,98.71
2018-04-18T04:43:51.368Z,98.57
2018-04-18T04:44:51.364Z,98.57
2018-04-18T04:45:51.332Z,98.23
2018-04-18T04:46:51.318Z,98.28
2018-04-18T04:47:51.306Z,98.42
2018-04-18T04:48:51.288Z,98.61
2018-04-18T04:49:51.272Z,98.42
2018-04-18T04:50:51.255Z,98.42
2018-04-18T04:51:51.250Z,98.52
2018-04-18T04:52:51.224Z,98.52
2018-04-18T04:53:51.209Z,97.94
2018-04-18T04:54:51.196Z,97.80
2018-04-18T04:55:51.186Z,97.85
2018-04-18T04:56:51.162Z,98.57
2018-04-18T04:57:51.146Z,98.42
2018-04-18T04:58:51.133Z,98.23
2018-04-18T04:59:51.124Z,97.99
2018-04-18T05:00:51.101Z,98.61
2018-04-18T05:01:51.091Z,99.08
2018-04-18T05:02:51.080Z,99.23
2018-04-18T05:03:51.059Z,99.85
2018-04-18T05:04:51.047Z,99.80
2018-04-18T05:05:51.023Z,99.99
2018-04-18T05:06:51.011Z,99.99
2018-04-18T05:07:50.992Z,99.99
2018-04-18T05:08:50.980Z,99.99
2018-04-18T05:09:50.962Z,99.99
2018-04-18T05:10:50.950Z,99.99
2018-04-18T05:11:50.933Z,99.99
2018-04-18T05:12:50.919Z,99.99
2018-04-18T05:13:50.900Z,99.52
2018-04-18T05:14:50.882Z,99.99
2018-04-18T05:15:50.871Z,99.99
2018-04-18T05:16:50.854Z,99.99
2018-04-18T05:17:50.838Z,99.99
2018-04-18T05:18:50.824Z,99.99
2018-04-18T05:19:50.814Z,99.99
2018-04-18T05:20:50.811Z,99.99
2018-04-18T05:21:50.775Z,99.99
2018-04-18T05:22:50.763Z,99.99
2018-04-18T05:23:50.744Z,99.99
2018-04-18T05:24:50.730Z,99.99
2018-04-18T05:25:50.710Z,99.99
2018-04-18T05:26:50.695Z,99.99
2018-04-18T05:27:50.680Z,99.99
2018-04-18T05:28:50.664Z,99.99
2018-04-18T05:29:50.654Z,99.99
2018-04-18T05:30:50.666Z,99.99
2018-04-18T05:31:50.625Z,99.99
2018-04-18T05:32:50.609Z,99.99
2018-04-18T05:33:50.587Z,99.99
2018-04-18T05:34:50.572Z,99.99
2018-04-18T05:35:50.552Z,99.99
2018-04-18T05:36:50.550Z,99.99
2018-04-18T05:37:50.529Z,99.99
2018-04-18T05:38:50.516Z,99.99
2018-04-18T05:39:50.494Z,99.99
2018-04-18T05:40:50.473Z,99.99
2018-04-18T05:41:50.461Z,99.99
2018-04-18T05:42:50.447Z,99.99
2018-04-18T05:43:50.425Z,99.99
2018-04-18T05:44:50.409Z,99.99
2018-04-18T05:45:50.392Z,99.99
2018-04-18T05:46:50.384Z,99.99
2018-04-18T05:47:50.362Z,99.99
2018-04-18T05:48:50.346Z,99.99
2018-04-18T05:49:50.328Z,99.99
2018-04-18T05:50:50.324Z,99.99
2018-04-18T05:51:50.298Z,99.99
2018-04-18T05:52:50.284Z,99.99
2018-04-18T05:53:50.267Z,99.95
2018-04-18T05:54:50.286Z,99.85
2018-04-18T05:55:50.244Z,99.57
2018-04-18T05:56:50.236Z,99.57
2018-04-18T05:57:50.227Z,99.99
2018-04-18T05:58:50.194Z,99.33
2018-04-18T05:59:50.178Z,99.14
2018-04-18T06:00:50.174Z,98.37
2018-04-18T06:01:50.145Z,98.28
2018-04-18T06:02:50.132Z,98.66
2018-04-18T06:03:50.124Z,98.04
2018-04-18T06:04:50.129Z,98.13
2018-04-18T06:05:50.094Z,98.18
2018-04-18T06:06:50.073Z,98.57
2018-04-18T06:07:50.059Z,98.37
2018-04-18T06:08:50.050Z,98.66
2018-04-18T06:09:50.023Z,98.52
2018-04-18T06:10:50.009Z,98.42
2018-04-18T06:11:49.993Z,98.52
2018-04-18T06:12:49.983Z,98.13
2018-04-18T06:13:49.961Z,98.71
2018-04-18T06:14:49.957Z,98.23
2018-04-18T06:15:49.938Z,98.23
2018-04-18T06:16:49.923Z,98.04
2018-04-18T06:17:49.904Z,97.56
2018-04-18T06:18:49.895Z,97.66
2018-04-18T06:19:49.874Z,98.13
2018-04-18T06:20:49.860Z,97.90
2018-04-18T06:21:49.842Z,97.66
2018-04-18T06:22:49.850Z,97.52
2018-04-18T06:23:49.825Z,97.90
2018-04-18T06:24:49.867Z,97.33
2018-04-18T06:25:49.793Z,97.13
2018-04-18T06:26:49.780Z,97.04
2018-04-18T06:27:49.766Z,96.84
2018-04-18T06:28:49.745Z,96.84
2018-04-18T06:29:49.731Z,96.75
2018-04-18T06:30:49.773Z,96.70
2018-04-18T06:31:49.703Z,96.32
2018-04-18T06:32:49.780Z,96.13
2018-04-18T06:33:49.674Z,96.22
2018-04-18T06:34:49.760Z,96.03
2018-04-18T06:35:49.644Z,95.70
2018-04-18T06:36:49.641Z,95.36
2018-04-18T06:37:49.616Z,95.12
2018-04-18T06:38:49.755Z,95.12
2018-04-18T06:39:49.593Z,95.12
2018-04-18T06:40:49.623Z,94.84
2018-04-18T06:41:49.562Z,95.03
2018-04-18T06:42:49.562Z,94.69
2018-04-18T06:43:49.531Z,93.93
2018-04-18T06:44:49.517Z,94.12
2018-04-18T06:45:49.532Z,93.93
2018-04-18T06:46:49.493Z,94.02
2018-04-18T06:47:49.481Z,93.74
2018-04-18T06:48:49.464Z,93.16
2018-04-18T06:49:49.452Z,93.30
2018-04-18T06:50:49.444Z,93.69
2018-04-18T06:51:49.433Z,93.21
2018-04-18T06:52:49.430Z,91.63
2018-04-18T06:53:49.417Z,91.24
2018-04-18T06:54:49.401Z,91.48
2018-04-18T06:55:49.393Z,90.61
2018-04-18T06:56:49.386Z,89.99
2018-04-18T06:57:49.370Z,89.32
2018-04-18T06:58:49.371Z,87.73
2018-04-18T06:59:49.357Z,87.15
2018-04-18T07:00:49.353Z,86.81
2018-04-18T07:01:49.353Z,85.22
2018-04-18T07:02:49.336Z,84.34
2018-04-18T07:03:49.335Z,81.56
2018-04-18T07:04:49.324Z,79.90
2018-04-18T07:05:49.327Z,76.38
2018-04-18T07:06:49.315Z,73.14
2018-04-18T07:07:49.309Z,68.59
2018-04-18T07:08:49.307Z,66.59
2018-04-18T07:09:49.301Z,63.43
2018-04-18T07:10:49.296Z,61.34
2018-04-18T07:11:49.290Z,59.34
2018-04-18T07:12:49.290Z,58.02
2018-04-18T07:13:49.289Z,56.11
2018-04-18T07:14:49.284Z,55.53
2018-04-18T07:15:49.289Z,55.53
2018-04-18T07:16:49.281Z,54.21
2018-04-18T07:17:49.286Z,53.17
2018-04-18T07:18:49.279Z,51.74
2018-04-18T07:19:49.274Z,50.21
2018-04-18T07:20:49.272Z,49.75
2018-04-18T07:21:49.273Z,48.61
2018-04-18T07:22:49.273Z,48.15
2018-04-18T07:23:49.275Z,46.79
2018-04-18T07:24:49.274Z,45.94
2018-04-18T07:25:49.272Z,44.87
2018-04-18T07:26:49.271Z,44.60
2018-04-18T07:27:49.273Z,44.70
2018-04-18T07:28:49.274Z,44.99
2018-04-18T07:29:49.278Z,44.70
2018-04-18T07:30:49.274Z,44.12
2018-04-18T07:31:49.290Z,43.26
2018-04-18T07:32:49.279Z,42.99
2018-04-18T07:33:49.288Z,42.72
2018-04-18T07:34:49.284Z,41.85
2018-04-18T07:35:49.294Z,41.09
2018-04-18T07:36:49.297Z,41.38
2018-04-18T07:37:49.296Z,41.48
2018-04-18T07:38:49.306Z,40.21
2018-04-18T07:39:49.308Z,40.09
2018-04-18T07:40:49.307Z,40.58
2018-04-18T07:41:49.309Z,40.58
2018-04-18T07:42:49.312Z,40.85
2018-04-18T07:43:49.322Z,41.26
2018-04-18T07:44:49.325Z,41.57
2018-04-18T07:45:49.325Z,40.70
2018-04-18T07:46:49.335Z,40.13
2018-04-18T07:47:49.335Z,39.65
2018-04-18T07:48:49.345Z,39.36
2018-04-18T07:49:49.344Z,39.24
2018-04-18T07:50:49.346Z,40.29
2018-04-18T07:51:49.355Z,39.49
2018-04-18T07:52:49.360Z,38.95
2018-04-18T07:53:49.364Z,38.96
2018-04-18T07:54:49.374Z,38.26
2018-04-18T07:55:49.375Z,39.24
2018-04-18T07:56:49.381Z,38.75
2018-04-18T07:57:49.383Z,38.09
2018-04-18T07:58:49.394Z,38.28
2018-04-18T07:59:49.394Z,38.51
2018-04-18T08:00:49.407Z,37.89
2018-04-18T08:01:49.408Z,39.06
2018-04-18T08:02:49.419Z,39.92
2018-04-18T08:03:49.424Z,39.92
2018-04-18T08:04:49.427Z,39.47
2018-04-18T08:05:49.439Z,39.86
2018-04-18T08:06:49.434Z,40.39
2018-04-18T08:07:49.454Z,37.85
2018-04-18T08:08:49.447Z,36.70
2018-04-18T08:09:49.454Z,36.04
2018-04-18T08:10:49.470Z,36.54
2018-04-18T08:11:49.466Z,36.36
2018-04-18T08:12:49.477Z,35.64
2018-04-18T08:13:49.480Z,35.35
2018-04-18T08:14:49.490Z,33.69
2018-04-18T08:15:49.493Z,34.09
2018-04-18T08:16:49.509Z,33.90
2018-04-18T08:17:49.518Z,34.01
2018-04-18T08:18:49.518Z,33.22
2018-04-18T08:19:49.524Z,32.94
2018-04-18T08:20:49.526Z,33.25
2018-04-18T08:21:49.565Z,33.87
2018-04-18T08:22:49.553Z,34.38
2018-04-18T08:23:49.560Z,33.89
2018-04-18T08:24:49.557Z,34.68
2018-04-18T08:25:49.565Z,33.92
2018-04-18T08:26:49.573Z,33.94
2018-04-18T08:27:49.586Z,33.36
2018-04-18T08:28:49.593Z,32.99
2018-04-18T08:29:49.597Z,32.10
2018-04-18T08:30:49.605Z,31.24
2018-04-18T08:31:49.618Z,30.54
2018-04-18T08:32:49.634Z,30.36
2018-04-18T08:33:49.626Z,29.77
2018-04-18T08:34:49.644Z,28.40
2018-04-18T08:35:49.642Z,29.46
2018-04-18T08:36:49.647Z,31.18
2018-04-18T08:37:49.660Z,31.78
2018-04-18T08:38:49.661Z,31.11
2018-04-18T08:39:49.675Z,30.26
2018-04-18T08:40:49.693Z,30.26
2018-04-18T08:41:49.685Z,29.79
2018-04-18T08:42:49.700Z,30.08
2018-04-18T08:43:49.705Z,30.39
2018-04-18T08:44:49.715Z,30.30
2018-04-18T08:45:49.719Z,30.02
2018-04-18T08:46:49.724Z,28.34
2018-04-18T08:47:49.733Z,28.34
2018-04-18T08:48:49.780Z,28.16
2018-04-18T08:49:49.746Z,27.78
2018-04-18T08:50:49.756Z,27.67
2018-04-18T08:51:49.765Z,27.87
2018-04-18T08:52:49.774Z,27.66
2018-04-18T08:53:49.780Z,28.05
2018-04-18T08:54:49.783Z,27.66
2018-04-18T08:55:49.793Z,28.54
2018-04-18T08:56:49.805Z,28.05
2018-04-18T08:57:49.807Z,28.01
2018-04-18T08:58:49.816Z,29.80
2018-04-18T08:59:49.819Z,31.07
2018-04-18T09:00:49.834Z,30.22
2018-04-18T09:01:49.832Z,30.33
2018-04-18T09:02:49.842Z,28.99
2018-04-18T09:03:49.844Z,28.23
2018-04-18T09:04:49.856Z,26.87
2018-04-18T09:05:49.868Z,26.87
2018-04-18T09:06:49.872Z,26.50
2018-04-18T09:07:49.871Z,28.43
2018-04-18T09:08:49.878Z,30.45
2018-04-18T09:09:49.934Z,31.25
2018-04-18T09:10:49.893Z,31.70
2018-04-18T09:11:49.902Z,33.17
2018-04-18T09:12:49.901Z,32.43
2018-04-18T09:13:49.912Z,31.00
2018-04-18T09:14:49.915Z,31.03
2018-04-18T09:15:49.924Z,29.59
2018-04-18T09:16:49.922Z,28.23
2018-04-18T09:17:49.923Z,28.69
2018-04-18T09:18:49.932Z,28.47
2018-04-18T09:19:49.938Z,29.94
2018-04-18T09:20:49.943Z,28.14
2018-04-18T09:21:49.942Z,28.61
2018-04-18T09:22:49.948Z,28.15
2018-04-18T09:23:49.951Z,29.70
2018-04-18T09:24:49.950Z,29.73
2018-04-18T09:25:49.960Z,28.50
2018-04-18T09:26:49.955Z,27.84
2018-04-18T09:27:49.962Z,26.79
2018-04-18T09:28:49.963Z,25.52
2018-04-18T09:29:49.967Z,25.54
2018-04-18T09:30:49.968Z,25.34
2018-04-18T09:31:49.971Z,25.66
2018-04-18T09:32:49.976Z,27.21
2018-04-18T09:33:49.981Z,27.88
2018-04-18T09:34:49.983Z,28.71
2018-04-18T09:35:49.982Z,28.65
2018-04-18T09:36:49.981Z,28.08
2018-04-18T09:37:49.981Z,26.83
2018-04-18T09:38:49.988Z,26.56
2018-04-18T09:39:49.987Z,26.97
2018-04-18T09:40:49.987Z,25.62
2018-04-18T09:41:49.987Z,25.63
2018-04-18T09:42:49.987Z,25.93
2018-04-18T09:43:49.991Z,27.25
2018-04-18T09:44:49.993Z,29.21
2018-04-18T09:45:49.990Z,31.03
2018-04-18T09:46:49.991Z,32.40
2018-04-18T09:47:50.003Z,32.43
2018-04-18T09:48:50.000Z,31.69
2018-04-18T09:49:49.993Z,30.35
2018-04-18T09:50:49.991Z,29.56
2018-04-18T09:51:49.992Z,29.36
2018-04-18T09:52:49.992Z,30.05
2018-04-18T09:53:50.001Z,28.72
2018-04-18T09:54:49.993Z,27.36
2018-04-18T09:55:49.993Z,26.68
2018-04-18T09:56:49.992Z,26.87
2018-04-18T09:57:49.991Z,28.13
2018-04-18T09:58:50.004Z,29.17
2018-04-18T09:59:49.985Z,30.08
2018-04-18T10:00:49.991Z,28.72
2018-04-18T10:01:49.982Z,29.02
2018-04-18T10:02:49.990Z,29.56
2018-04-18T10:03:49.984Z,29.95
2018-04-18T10:04:49.982Z,29.96
2018-04-18T10:05:49.989Z,29.50
2018-04-18T10:06:49.975Z,28.64
2018-04-18T10:07:49.982Z,28.25
2018-04-18T10:08:49.972Z,28.25
2018-04-18T10:09:49.972Z,28.23
2018-04-18T10:10:49.967Z,28.44
2018-04-18T10:11:49.966Z,28.20
2018-04-18T10:12:49.967Z,28.91
2018-04-18T10:13:49.969Z,28.43
2018-04-18T10:14:49.963Z,28.44
2018-04-18T10:15:49.967Z,27.97
2018-04-18T10:16:49.956Z,28.36
2018-04-18T10:17:49.952Z,28.47
2018-04-18T10:18:49.951Z,29.06
2018-04-18T10:19:49.948Z,28.47
2018-04-18T10:20:49.952Z,29.11
2018-04-18T10:21:49.939Z,29.99
2018-04-18T10:22:50.000Z,30.44
2018-04-18T10:23:49.937Z,30.78
2018-04-18T10:24:49.936Z,31.54
2018-04-18T10:25:49.934Z,32.37
2018-04-18T10:26:49.932Z,34.30
2018-04-18T10:27:49.930Z,35.27
2018-04-18T10:28:49.927Z,35.88
2018-04-18T10:29:49.920Z,35.11
2018-04-18T10:30:49.924Z,35.13
2018-04-18T10:31:49.914Z,34.88
2018-04-18T10:32:49.911Z,34.00
2018-04-18T10:33:49.911Z,33.28
2018-04-18T10:34:49.907Z,33.86
2018-04-18T10:35:49.907Z,33.86
2018-04-18T10:36:49.903Z,34.86
2018-04-18T10:37:49.894Z,33.98
2018-04-18T10:38:49.894Z,33.39
2018-04-18T10:39:49.892Z,33.41
2018-04-18T10:40:49.899Z,33.02
2018-04-18T10:41:49.885Z,32.75
2018-04-18T10:42:49.879Z,32.76
2018-04-18T10:43:49.878Z,32.47
2018-04-18T10:44:49.872Z,32.37
2018-04-18T10:45:49.872Z,32.47
2018-04-18T10:46:49.872Z,31.67
2018-04-18T10:47:49.865Z,32.34
2018-04-18T10:48:49.862Z,32.62
2018-04-18T10:49:49.859Z,33.59
2018-04-18T10:50:49.851Z,33.29
2018-04-18T10:51:49.847Z,33.23
2018-04-18T10:52:49.854Z,33.73
2018-04-18T10:53:49.840Z,33.22
2018-04-18T10:54:49.835Z,33.33
2018-04-18T10:55:49.841Z,32.47
2018-04-18T10:56:49.832Z,32.35
2018-04-18T10:57:49.834Z,33.46
2018-04-18T10:58:49.826Z,33.46
2018-04-18T10:59:49.828Z,31.52
2018-04-18T11:00:49.841Z,31.54
2018-04-18T11:01:49.814Z,31.13
2018-04-18T11:02:49.813Z,30.15
2018-04-18T11:03:49.805Z,31.53
2018-04-18T11:04:49.802Z,32.50
2018-04-18T11:05:49.846Z,32.89
2018-04-18T11:06:49.797Z,32.73
2018-04-18T11:07:49.845Z,31.27
2018-04-18T11:08:49.797Z,31.95
2018-04-18T11:09:49.792Z,31.67
2018-04-18T11:10:49.785Z,32.37
2018-04-18T11:11:49.830Z,31.02
2018-04-18T11:12:49.776Z,31.79
2018-04-18T11:13:49.775Z,31.79
2018-04-18T11:14:49.776Z,31.69
2018-04-18T11:15:49.813Z,32.37
2018-04-18T11:16:49.762Z,33.75
2018-04-18T11:17:49.760Z,31.70
2018-04-18T11:18:49.751Z,31.64
2018-04-18T11:19:49.752Z,31.15
2018-04-18T11:20:49.758Z,30.38
2018-04-18T11:21:49.745Z,29.39
2018-04-18T11:22:49.736Z,31.22
2018-04-18T11:23:49.746Z,32.48
2018-04-18T11:24:49.732Z,32.19
2018-04-18T11:25:49.729Z,31.41
2018-04-18T11:26:49.723Z,32.31
2018-04-18T11:27:49.723Z,31.74
2018-04-18T11:28:49.723Z,30.76
2018-04-18T11:29:49.716Z,31.26
2018-04-18T11:30:49.714Z,30.68
2018-04-18T11:31:49.707Z,30.57
2018-04-18T11:32:49.706Z,31.15
2018-04-18T11:33:49.705Z,31.75
2018-04-18T11:34:49.698Z,31.67
2018-04-18T11:35:49.702Z,33.85
2018-04-18T11:36:49.702Z,34.92
2018-04-18T11:37:49.690Z,35.03
2018-04-18T11:38:49.689Z,33.31
2018-04-18T11:39:49.719Z,33.82
2018-04-18T11:40:49.684Z,33.15
2018-04-18T11:41:49.677Z,31.38
2018-04-18T11:42:49.775Z,33.22
2018-04-18T11:43:49.673Z,33.85
2018-04-18T11:44:49.727Z,34.16
2018-04-18T11:45:49.663Z,35.60
2018-04-18T11:46:49.771Z,35.31
2018-04-18T11:47:49.654Z,36.34
2018-04-18T11:48:49.653Z,37.02
2018-04-18T11:49:49.645Z,36.63
2018-04-18T11:50:49.644Z,36.54
2018-04-18T11:51:49.640Z,36.16
2018-04-18T11:52:49.643Z,36.77
2018-04-18T11:53:49.634Z,36.41
2018-04-18T11:54:49.631Z,35.36
2018-04-18T11:55:49.627Z,34.37
2018-04-18T11:56:49.620Z,34.48
2018-04-18T11:57:49.625Z,35.26
2018-04-18T11:58:49.611Z,35.47
2018-04-18T11:59:49.619Z,33.92
2018-04-18T12:00:49.605Z,33.82
2018-04-18T12:01:49.605Z,34.31
2018-04-18T12:02:49.606Z,35.98
2018-04-18T12:03:49.595Z,33.54
2018-04-18T12:04:49.589Z,34.79
2018-04-18T12:05:49.586Z,35.10
2018-04-18T12:06:49.579Z,33.83
2018-04-18T12:07:49.582Z,33.93
2018-04-18T12:08:49.573Z,33.90
2018-04-18T12:09:49.574Z,34.21
2018-04-18T12:10:49.577Z,33.62
2018-04-18T12:11:49.650Z,33.62
2018-04-18T12:12:49.565Z,33.92
2018-04-18T12:13:49.715Z,34.39
2018-04-18T12:14:49.560Z,34.39
2018-04-18T12:15:49.555Z,34.39
2018-04-18T12:16:49.547Z,34.68
2018-04-18T12:17:49.594Z,35.06
2018-04-18T12:18:49.536Z,34.86
2018-04-18T12:19:49.586Z,35.21
2018-04-18T12:20:49.528Z,35.81
2018-04-18T12:21:49.573Z,35.05
2018-04-18T12:22:49.558Z,34.78
2018-04-18T12:23:49.519Z,35.47
2018-04-18T12:24:49.515Z,35.47
2018-04-18T12:25:49.519Z,35.59
2018-04-18T12:26:49.516Z,34.79
2018-04-18T12:27:49.505Z,33.44
2018-04-18T12:28:49.501Z,33.39
2018-04-18T12:29:49.493Z,35.02
2018-04-18T12:30:49.493Z,35.02
2018-04-18T12:31:49.493Z,35.13
2018-04-18T12:32:49.483Z,34.08
2018-04-18T12:33:49.553Z,33.90
2018-04-18T12:34:49.473Z,33.61
2018-04-18T12:35:49.478Z,33.72
2018-04-18T12:36:49.469Z,33.70
2018-04-18T12:37:49.465Z,33.59
2018-04-18T12:38:49.465Z,36.82
2018-04-18T12:39:49.453Z,35.16
2018-04-18T12:40:49.463Z,33.12
2018-04-18T12:41:49.458Z,33.72
2018-04-18T12:42:49.449Z,33.23
2018-04-18T12:43:49.504Z,33.43
2018-04-18T12:44:49.442Z,33.93
2018-04-18T12:45:49.436Z,32.75
2018-04-18T12:46:49.528Z,32.73
2018-04-18T12:47:49.424Z,33.22
2018-04-18T12:48:49.423Z,33.22
2018-04-18T12:49:49.420Z,33.31
2018-04-18T12:50:49.422Z,33.22
2018-04-18T12:51:49.408Z,33.88
2018-04-18T12:52:49.402Z,34.88